Time;durP1;ratioP1;P1;durP2;ratioP2;P2;SDS_P1;SDS_P2;PMS_P1;PMS_P2;Temp;Humidity;BMP_temperature;BMP_pressure;BME280_temperature;BME280_humidity;BME280_pressure;Samples;Min_cycle;Max_cycle;Signal;HPM_P1;HPM_P2
2023/06/22 00:02:17;;;;;;;45.83;37.10;;;17.90;99.90;;;;;;5038057;27;92748;-34
2023/06/22 00:04:43;;;;;;;51.67;40.60;;;17.90;99.90;;;;;;5033833;27;95167;-33
2023/06/22 00:07:09;;;;;;;49.75;41.70;;;17.90;99.90;;;;;;5018104;27;94057;-32
2023/06/22 00:09:35;;;;;;;41.47;36.65;;;17.90;99.90;;;;;;5018248;27;95038;-34
2023/06/22 00:12:01;;;;;;;47.33;39.13;;;17.90;99.90;;;;;;5010594;27;91370;-33
2023/06/22 00:14:27;;;;;;;47.13;41.92;;;17.80;99.90;;;;;;5017331;28;94834;-33
2023/06/22 00:16:56;;;;;;;47.72;40.22;;;17.80;99.90;;;;;;5025689;27;95889;-32
2023/06/22 00:19:25;;;;;;;49.95;41.30;;;17.80;99.90;;;;;;5017248;28;94355;-32
2023/06/22 00:21:54;;;;;;;46.22;41.00;;;17.80;99.90;;;;;;5027782;27;93490;-33
2023/06/22 00:24:20;;;;;;;49.28;41.25;;;17.80;99.90;;;;;;5030729;27;95908;-35
2023/06/22 00:26:48;;;;;;;46.83;40.80;;;17.80;99.90;;;;;;5030273;27;95020;-35
2023/06/22 00:29:13;;;;;;;51.40;41.37;;;17.70;99.90;;;;;;5038521;27;93521;-34
2023/06/22 00:31:39;;;;;;;50.22;41.28;;;17.70;99.90;;;;;;5025216;27;92174;-33
2023/06/22 00:34:08;;;;;;;46.58;36.78;;;17.70;99.90;;;;;;5030621;27;95113;-34
2023/06/22 00:36:34;;;;;;;45.47;39.30;;;17.70;99.90;;;;;;5018180;27;94543;-33
2023/06/22 00:39:00;;;;;;;49.35;43.85;;;17.60;99.90;;;;;;5018375;27;93049;-32
2023/06/22 00:41:28;;;;;;;42.80;37.53;;;17.70;99.90;;;;;;4983187;28;93470;-35
2023/06/22 00:43:54;;;;;;;49.35;42.08;;;17.60;99.90;;;;;;5016483;27;96057;-34
2023/06/22 00:46:20;;;;;;;49.95;43.72;;;17.60;99.90;;;;;;5017891;27;95373;-32
2023/06/22 00:48:46;;;;;;;49.38;42.42;;;17.60;99.90;;;;;;5000959;28;93442;-34
2023/06/22 00:51:11;;;;;;;46.60;39.47;;;17.60;99.90;;;;;;5018383;27;94349;-35
2023/06/22 00:53:37;;;;;;;46.70;41.58;;;17.60;99.90;;;;;;5017966;27;94276;-35
2023/06/22 00:56:05;;;;;;;44.58;39.53;;;17.50;99.90;;;;;;5030922;27;94556;-35
2023/06/22 00:58:31;;;;;;;43.70;38.72;;;17.50;99.90;;;;;;5004671;27;94996;-37
2023/06/22 01:00:57;;;;;;;38.92;33.22;;;17.50;99.90;;;;;;5017681;28;92263;-35
2023/06/22 01:03:22;;;;;;;39.88;34.75;;;17.50;99.90;;;;;;5017595;27;94898;-31
2023/06/22 01:05:49;;;;;;;43.78;37.22;;;17.50;99.90;;;;;;5017837;27;94756;-34
2023/06/22 01:08:41;;;;;;;44.38;38.97;;;17.50;99.90;;;;;;5017356;27;93067;-35
2023/06/22 01:11:27;;;;;;;41.85;37.22;;;17.50;99.90;;;;;;5001668;27;92800;-35
2023/06/22 01:14:24;;;;;;;45.97;38.58;;;17.40;99.90;;;;;;5017921;27;94016;-35
2023/06/22 01:16:51;;;;;;;46.25;40.20;;;17.40;99.90;;;;;;5008355;27;94753;-33
2023/06/22 01:19:46;;;;;;;43.90;34.80;;;17.30;99.90;;;;;;5018047;27;94002;-35
2023/06/22 01:22:16;;;;;;;48.53;39.58;;;17.30;99.90;;;;;;4999354;27;93285;-33
2023/06/22 01:24:56;;;;;;;46.53;40.15;;;17.30;99.90;;;;;;5017498;27;94906;-34
2023/06/22 01:28:01;;;;;;;44.55;38.50;;;17.30;99.90;;;;;;5016760;27;94370;-34
2023/06/22 01:30:28;;;;;;;54.90;43.38;;;17.30;99.90;;;;;;5030206;27;94227;-34
2023/06/22 01:32:57;;;;;;;47.08;40.83;;;17.30;99.90;;;;;;5017262;27;93417;-34
2023/06/22 01:35:24;;;;;;;50.78;41.28;;;17.20;99.90;;;;;;5015277;28;95394;-34
2023/06/22 01:37:50;;;;;;;52.55;40.95;;;17.30;99.90;;;;;;5016525;28;95718;-33
2023/06/22 01:40:16;;;;;;;46.90;41.05;;;17.30;99.90;;;;;;5015611;28;94477;-33
2023/06/22 01:42:43;;;;;;;49.92;42.45;;;17.30;99.90;;;;;;5016303;28;93596;-33
2023/06/22 01:45:11;;;;;;;53.20;46.38;;;17.20;99.90;;;;;;5010902;28;94871;-33
2023/06/22 01:47:36;;;;;;;;;;;17.20;99.90;;;;;;5017378;28;94177;-33
2023/06/22 01:50:02;;;;;;;51.72;44.45;;;17.10;99.90;;;;;;5018782;28;93406;-34
2023/06/22 01:52:28;;;;;;;52.53;45.33;;;17.10;99.90;;;;;;5016784;28;92629;-32
2023/06/22 01:54:54;;;;;;;53.13;46.67;;;17.10;99.90;;;;;;5014340;28;94040;-34
2023/06/22 01:57:20;;;;;;;58.22;42.72;;;17.10;99.90;;;;;;5015220;28;95246;-32
2023/06/22 02:00:02;;;;;;;53.60;43.80;;;17.10;99.90;;;;;;5008543;28;95238;-36
2023/06/22 02:02:33;;;;;;;51.83;44.88;;;17.10;99.90;;;;;;5015899;28;92757;-34
2023/06/22 02:05:04;;;;;;;46.53;40.47;;;17.00;99.90;;;;;;5015957;28;95180;-35
2023/06/22 02:07:37;;;;;;;48.28;41.78;;;17.00;99.90;;;;;;5015765;28;94063;-34
2023/06/22 02:10:05;;;;;;;46.13;39.42;;;16.90;99.90;;;;;;5017354;28;94529;-36
2023/06/22 02:12:32;;;;;;;50.95;42.40;;;16.90;99.90;;;;;;5008199;28;92265;-35
2023/06/22 02:15:00;;;;;;;45.63;38.15;;;16.90;99.90;;;;;;5015572;28;95794;-34
2023/06/22 02:17:26;;;;;;;49.13;42.80;;;16.80;99.90;;;;;;5015733;28;95088;-32
2023/06/22 02:19:52;;;;;;;43.53;38.67;;;16.80;99.90;;;;;;5016482;28;93998;-32
2023/06/22 02:22:18;;;;;;;50.05;42.65;;;16.80;99.90;;;;;;5015650;28;92629;-33
2023/06/22 02:24:43;;;;;;;48.65;38.97;;;16.80;99.90;;;;;;5015739;28;95948;-33
2023/06/22 02:27:10;;;;;;;46.17;40.78;;;16.80;99.90;;;;;;5015492;28;95758;-35
2023/06/22 02:29:36;;;;;;;48.15;39.53;;;16.70;99.90;;;;;;4998041;28;93302;-34
2023/06/22 02:32:02;;;;;;;50.38;41.20;;;16.70;99.90;;;;;;4995331;28;94505;-32
2023/06/22 02:34:28;;;;;;;50.47;41.05;;;16.70;99.90;;;;;;5026970;27;95141;-35
2023/06/22 02:36:53;;;;;;;45.50;39.03;;;16.60;99.90;;;;;;5037703;27;94757;-37
2023/06/22 02:39:22;;;;;;;47.38;40.17;;;16.60;99.90;;;;;;5056850;27;94125;-34
2023/06/22 02:41:54;;;;;;;43.00;38.30;;;16.60;99.90;;;;;;5055819;27;91557;-33
2023/06/22 02:44:20;;;;;;;47.65;38.47;;;16.50;99.90;;;;;;5045090;27;94921;-34
2023/06/22 02:46:47;;;;;;;38.97;34.85;;;16.50;99.90;;;;;;5035337;27;94120;-31
2023/06/22 02:49:13;;;;;;;44.97;40.22;;;16.50;99.90;;;;;;5040102;27;94197;-32
2023/06/22 02:51:42;;;;;;;40.83;36.42;;;16.40;99.90;;;;;;5055671;27;94319;-33
2023/06/22 02:54:07;;;;;;;43.35;36.97;;;16.40;99.90;;;;;;5044646;27;94469;-33
2023/06/22 02:56:33;;;;;;;43.47;36.83;;;16.40;99.90;;;;;;5052926;27;94867;-32
2023/06/22 02:59:02;;;;;;;43.50;38.67;;;16.40;99.90;;;;;;5046262;27;94611;-36
2023/06/22 03:01:30;;;;;;;46.80;41.67;;;16.40;99.90;;;;;;5035485;27;93526;-32
2023/06/22 03:03:56;;;;;;;40.17;35.92;;;16.40;99.90;;;;;;5035887;27;94358;-32
2023/06/22 03:06:28;;;;;;;47.47;38.45;;;16.40;99.90;;;;;;5036155;27;94441;-33
2023/06/22 03:08:58;;;;;;;42.95;38.15;;;16.30;99.90;;;;;;5036285;27;93271;-35
2023/06/22 03:11:24;;;;;;;38.13;34.10;;;16.30;99.90;;;;;;5035797;27;92299;-33
2023/06/22 03:13:52;;;;;;;40.40;36.17;;;16.10;99.90;;;;;;5034790;27;96717;-32
2023/06/22 03:16:18;;;;;;;42.83;38.27;;;16.10;99.90;;;;;;5033840;27;93932;-34
2023/06/22 03:18:44;;;;;;;35.38;31.83;;;16.00;99.90;;;;;;5035490;27;94568;-32
2023/06/22 03:21:09;;;;;;;34.83;31.25;;;16.00;99.90;;;;;;5023529;27;92703;-33
2023/06/22 03:23:36;;;;;;;45.22;40.28;;;16.00;99.90;;;;;;5029030;27;94726;-33
2023/06/22 03:26:02;;;;;;;46.50;39.85;;;16.00;99.90;;;;;;5032503;27;94248;-36
2023/06/22 03:28:28;;;;;;;44.67;40.13;;;16.00;99.90;;;;;;5028090;27;93823;-35
2023/06/22 03:30:53;;;;;;;42.22;36.42;;;16.00;99.90;;;;;;5037556;27;94002;-34
2023/06/22 03:33:19;;;;;;;39.40;35.38;;;16.00;99.90;;;;;;5035965;27;94813;-32
2023/06/22 03:35:45;;;;;;;38.08;34.20;;;16.00;99.90;;;;;;5037174;27;94643;-33
2023/06/22 03:38:10;;;;;;;39.33;35.13;;;16.00;99.90;;;;;;5035717;27;94162;-33
2023/06/22 03:40:36;;;;;;;44.97;40.42;;;16.00;99.90;;;;;;5035557;27;94522;-33
2023/06/22 03:43:02;;;;;;;44.28;39.33;;;16.00;99.90;;;;;;5036133;27;95026;-33
2023/06/22 03:45:27;;;;;;;43.90;39.22;;;16.00;99.90;;;;;;5036129;27;94674;-34
2023/06/22 03:47:53;;;;;;;38.10;34.28;;;15.90;99.90;;;;;;5036527;27;92134;-31
2023/06/22 03:50:20;;;;;;;38.72;34.25;;;15.90;99.90;;;;;;5035362;27;94831;-33
2023/06/22 03:52:46;;;;;;;36.17;32.30;;;15.90;99.90;;;;;;5035759;27;94708;-35
2023/06/22 03:55:11;;;;;;;37.63;33.80;;;15.90;99.90;;;;;;5034737;27;94256;-33
2023/06/22 03:57:37;;;;;;;31.30;28.27;;;15.90;99.90;;;;;;5035316;27;92894;-35
2023/06/22 04:00:07;;;;;;;33.05;29.75;;;15.80;99.90;;;;;;5049265;27;92754;-32
2023/06/22 04:02:33;;;;;;;34.20;30.67;;;15.80;99.90;;;;;;5027839;27;95363;-33
2023/06/22 04:04:59;;;;;;;38.95;34.25;;;15.70;99.90;;;;;;5033409;27;96340;-34
2023/06/22 04:07:24;;;;;;;38.28;34.45;;;15.70;99.90;;;;;;5034607;27;92807;-32
2023/06/22 04:09:50;;;;;;;39.25;35.00;;;15.70;99.90;;;;;;5033776;27;93704;-34
2023/06/22 04:12:16;;;;;;;40.28;34.78;;;15.70;99.90;;;;;;5026136;27;95038;-37
2023/06/22 04:14:41;;;;;;;32.47;29.27;;;15.70;99.90;;;;;;5035516;27;94738;-32
2023/06/22 04:17:07;;;;;;;32.35;29.25;;;15.80;99.90;;;;;;5035569;27;93863;-33
2023/06/22 04:19:33;;;;;;;33.38;30.10;;;15.80;99.90;;;;;;5037991;27;93809;-34
2023/06/22 04:21:58;;;;;;;32.33;29.00;;;15.80;99.90;;;;;;5039117;27;95038;-33
2023/06/22 04:24:24;;;;;;;33.85;30.58;;;15.90;99.90;;;;;;5040323;27;95164;-38
2023/06/22 04:26:54;;;;;;;35.85;32.10;;;15.90;99.90;;;;;;5039120;27;94702;-34
2023/06/22 04:29:20;;;;;;;49.88;42.70;;;15.90;99.90;;;;;;5026877;27;92200;-32
2023/06/22 04:31:50;;;;;;;47.55;42.10;;;16.00;99.90;;;;;;5051046;27;95153;-33
2023/06/22 04:34:17;;;;;;;45.28;38.90;;;16.00;99.90;;;;;;5058964;22;94432;-31
2023/06/22 04:36:42;;;;;;;49.92;39.78;;;16.00;99.90;;;;;;4997133;28;94576;-38
2023/06/22 04:39:10;;;;;;;43.63;38.92;;;16.00;99.90;;;;;;4997983;28;93889;-34
2023/06/22 04:41:42;;;;;;;51.53;44.92;;;16.00;99.90;;;;;;4996745;28;94351;-36
2023/06/22 04:44:12;;;;;;;47.45;40.88;;;16.00;99.90;;;;;;4998239;28;94964;-31
2023/06/22 04:46:39;;;;;;;50.15;43.58;;;16.10;99.90;;;;;;4997955;28;93263;-34
2023/06/22 04:49:11;;;;;;;52.37;41.70;;;16.10;99.90;;;;;;4997473;28;93962;-34
2023/06/22 04:51:41;;;;;;;45.42;38.92;;;16.10;99.90;;;;;;4996832;28;95692;-32
2023/06/22 04:54:08;;;;;;;49.67;43.83;;;16.20;99.90;;;;;;4997783;28;94984;-33
2023/06/22 04:56:34;;;;;;;53.03;42.83;;;16.30;99.90;;;;;;4997665;28;93110;-35
2023/06/22 04:59:00;;;;;;;48.38;42.63;;;16.40;99.90;;;;;;4997801;28;93797;-37
2023/06/22 05:01:26;;;;;;;50.92;42.63;;;16.40;99.90;;;;;;4996964;28;94573;-35
2023/06/22 05:03:55;;;;;;;51.28;44.25;;;16.50;99.90;;;;;;4996957;28;94178;-32
2023/06/22 05:06:24;;;;;;;53.63;43.65;;;16.60;99.90;;;;;;4997200;28;93657;-34
2023/06/22 05:08:58;;;;;;;53.00;46.28;;;16.80;99.90;;;;;;4997484;28;93417;-38
2023/06/22 05:11:28;;;;;;;50.63;45.28;;;16.90;99.90;;;;;;4996744;28;94897;-32
2023/06/22 05:13:54;;;;;;;50.08;44.63;;;17.00;99.90;;;;;;4996656;28;94730;-33
2023/06/22 05:16:23;;;;;;;51.50;44.60;;;17.10;99.90;;;;;;4995982;28;93417;-32
2023/06/22 05:18:54;;;;;;;57.10;45.33;;;17.20;99.90;;;;;;5007542;28;93059;-35
2023/06/22 05:21:27;;;;;;;53.75;46.33;;;17.30;99.90;;;;;;4998379;28;94574;-33
2023/06/22 05:23:59;;;;;;;52.15;43.60;;;17.60;99.90;;;;;;5000843;28;96577;-35
2023/06/22 05:26:28;;;;;;;47.15;39.30;;;17.80;99.90;;;;;;5010422;28;93108;-36
2023/06/22 05:28:54;;;;;;;50.92;45.55;;;17.90;99.90;;;;;;4994526;28;94046;-37
2023/06/22 05:31:20;;;;;;;49.40;43.92;;;18.00;99.90;;;;;;4992690;28;94847;-37
2023/06/22 05:33:47;;;;;;;53.72;45.92;;;18.10;99.90;;;;;;4994566;28;94413;-35
2023/06/22 05:36:12;;;;;;;54.55;43.35;;;18.10;99.90;;;;;;4994992;28;92174;-37
2023/06/22 05:38:40;;;;;;;50.10;44.10;;;18.20;99.90;;;;;;4995867;28;92226;-33
2023/06/22 05:41:07;;;;;;;51.17;42.28;;;18.40;99.90;;;;;;4975133;28;95961;-38
2023/06/22 05:43:32;;;;;;;48.10;42.42;;;18.60;99.90;;;;;;4995547;28;95620;-34
2023/06/22 05:45:59;;;;;;;49.33;42.13;;;18.80;99.90;;;;;;4994762;28;94169;-33
2023/06/22 05:48:25;;;;;;;53.38;46.00;;;18.90;99.90;;;;;;4994578;28;93720;-38
2023/06/22 05:50:50;;;;;;;53.60;45.10;;;19.10;99.90;;;;;;4995316;28;94674;-36
2023/06/22 05:53:16;;;;;;;54.35;43.03;;;19.20;99.90;;;;;;4993687;28;94364;-33
2023/06/22 05:55:42;;;;;;;53.17;43.53;;;19.40;99.90;;;;;;4995515;28;93516;-34
2023/06/22 05:58:08;;;;;;;53.28;43.75;;;19.50;99.90;;;;;;4993983;28;92148;-37
2023/06/22 06:00:34;;;;;;;56.92;45.92;;;19.60;99.90;;;;;;4994205;28;95272;-36
2023/06/22 06:03:03;;;;;;;49.47;43.88;;;19.60;99.90;;;;;;4994883;28;94285;-33
2023/06/22 06:05:33;;;;;;;48.22;41.08;;;19.70;99.90;;;;;;4994228;28;95272;-34
2023/06/22 06:07:59;;;;;;;56.58;44.72;;;19.60;99.90;;;;;;4994539;28;93417;-34
2023/06/22 06:10:25;;;;;;;52.97;43.35;;;19.70;99.90;;;;;;4993599;28;94750;-37
2023/06/22 06:12:51;;;;;;;53.65;44.15;;;19.70;99.90;;;;;;4994366;28;94065;-35
2023/06/22 06:15:17;;;;;;;53.90;45.38;;;19.80;99.90;;;;;;4994736;28;93384;-34
2023/06/22 06:17:50;;;;;;;46.55;40.08;;;20.00;99.90;;;;;;4994388;28;93652;-34
2023/06/22 06:20:19;;;;;;;49.00;42.83;;;20.00;99.90;;;;;;4993455;28;96256;-36
2023/06/22 06:22:45;;;;;;;51.95;43.80;;;20.10;99.90;;;;;;4993989;28;94299;-32
2023/06/22 06:25:15;;;;;;;49.25;41.95;;;20.20;99.90;;;;;;4994236;28;94404;-37
2023/06/22 06:27:45;;;;;;;45.83;38.42;;;20.30;99.90;;;;;;4981584;28;93441;-33
2023/06/22 06:30:12;;;;;;;46.15;38.08;;;20.40;99.90;;;;;;4993249;28;96312;-35
2023/06/22 06:32:38;;;;;;;46.03;40.85;;;20.50;99.90;;;;;;4994239;28;94577;-37
2023/06/22 06:35:07;;;;;;;46.08;38.83;;;20.70;99.90;;;;;;4993530;28;94042;-34
2023/06/22 06:37:37;;;;;;;36.22;32.47;;;20.90;99.90;;;;;;4993330;28;93270;-35
2023/06/22 06:40:05;;;;;;;31.52;27.88;;;21.10;99.90;;;;;;4993191;28;95106;-38
2023/06/22 06:42:31;;;;;;;29.73;26.55;;;21.20;99.90;;;;;;4992937;28;94049;-34
2023/06/22 06:44:57;;;;;;;31.58;26.40;;;21.10;99.90;;;;;;4994173;28;94846;-37
2023/06/22 06:47:22;;;;;;;30.95;26.83;;;21.20;99.90;;;;;;4994313;28;92613;-34
2023/06/22 06:49:48;;;;;;;30.63;26.92;;;21.10;99.90;;;;;;4993499;28;93477;-36
2023/06/22 06:52:13;;;;;;;30.67;26.05;;;21.10;99.90;;;;;;4992978;28;95038;-35
2023/06/22 06:54:39;;;;;;;26.20;23.42;;;21.00;99.90;;;;;;4993056;28;94396;-36
2023/06/22 06:57:05;;;;;;;28.38;25.38;;;21.10;99.90;;;;;;4994124;28;94026;-33
2023/06/22 06:59:30;;;;;;;27.92;25.02;;;21.20;99.90;;;;;;4992714;28;95070;-34
2023/06/22 07:01:56;;;;;;;25.83;23.08;;;21.30;99.90;;;;;;4992924;28;94424;-36
2023/06/22 07:04:21;;;;;;;25.45;22.73;;;21.40;99.90;;;;;;4991963;28;93591;-37
2023/06/22 07:06:47;;;;;;;24.48;21.90;;;21.50;99.90;;;;;;4992594;28;92799;-37
2023/06/22 07:09:13;;;;;;;25.80;21.73;;;21.70;99.90;;;;;;4992099;28;93448;-33
2023/06/22 07:11:38;;;;;;;28.27;23.55;;;21.70;99.90;;;;;;4992133;28;94671;-36
2023/06/22 07:14:04;;;;;;;23.38;21.02;;;21.70;99.90;;;;;;4992460;28;94264;-32
2023/06/22 07:16:31;;;;;;;22.30;20.10;;;21.80;99.90;;;;;;4992201;28;93208;-36
2023/06/22 07:18:57;;;;;;;22.38;20.17;;;21.80;99.90;;;;;;4992190;28;95803;-35
2023/06/22 07:21:22;;;;;;;21.17;18.30;;;21.90;99.90;;;;;;4992583;28;96410;-33
2023/06/22 07:23:48;;;;;;;21.75;19.52;;;21.80;99.90;;;;;;4993269;28;94356;-36
2023/06/22 07:26:13;;;;;;;20.75;18.80;;;21.90;99.90;;;;;;4993039;28;92838;-38
2023/06/22 07:28:40;;;;;;;22.27;20.05;;;22.00;99.90;;;;;;4993223;28;94738;-34
2023/06/22 07:31:06;;;;;;;19.50;16.17;;;22.10;99.90;;;;;;4992830;28;94900;-37
2023/06/22 07:33:32;;;;;;;18.17;16.48;;;22.30;99.90;;;;;;4992363;28;93573;-33
2023/06/22 07:35:57;;;;;;;17.45;15.63;;;22.40;99.90;;;;;;4992505;28;91490;-36
2023/06/22 07:38:23;;;;;;;19.75;17.38;;;22.40;99.90;;;;;;4992407;28;94926;-36
2023/06/22 07:40:50;;;;;;;28.13;15.52;;;22.60;99.90;;;;;;4993026;28;93386;-37
2023/06/22 07:43:16;;;;;;;19.63;15.75;;;22.70;99.90;;;;;;4974642;28;94436;-33
2023/06/22 07:45:54;;;;;;;15.35;13.85;;;22.80;99.90;;;;;;4993133;28;94284;-34
2023/06/22 07:48:23;;;;;;;15.68;11.88;;;22.90;99.90;;;;;;4992211;28;94312;-34
2023/06/22 07:50:49;;;;;;;14.90;13.48;;;23.10;99.90;;;;;;4974257;28;96146;-34
2023/06/22 07:53:15;;;;;;;13.57;12.18;;;23.20;99.90;;;;;;4993608;28;94565;-38
2023/06/22 07:55:41;;;;;;;13.15;11.85;;;23.30;99.90;;;;;;4996682;28;93987;-35
2023/06/22 07:58:06;;;;;;;12.65;11.18;;;23.40;99.90;;;;;;4995249;28;94617;-35
2023/06/22 08:00:34;;;;;;;13.35;12.07;;;23.40;99.90;;;;;;4996420;28;94178;-34
2023/06/22 08:02:59;;;;;;;15.48;14.07;;;23.40;99.90;;;;;;4996322;28;92987;-33
2023/06/22 08:05:25;;;;;;;13.32;11.98;;;23.50;99.90;;;;;;4995842;28;94162;-34
2023/06/22 08:07:51;;;;;;;10.65;9.60;;;23.60;99.90;;;;;;4995884;28;95599;-35
2023/06/22 08:10:17;;;;;;;10.30;9.30;;;23.60;99.90;;;;;;4996012;28;95487;-36
2023/06/22 08:12:43;;;;;;;10.85;9.82;;;23.80;99.90;;;;;;4997229;28;94307;-34
2023/06/22 08:15:09;;;;;;;12.13;10.90;;;23.80;99.90;;;;;;4996791;28;94283;-37
2023/06/22 08:17:37;;;;;;;11.02;9.95;;;23.90;99.90;;;;;;4995683;28;94235;-33
2023/06/22 08:20:09;;;;;;;;;;;23.90;99.90;;;;;;4997253;28;94490;-40
2023/06/22 08:22:36;;;;;;;11.57;9.73;;;24.00;99.90;;;;;;4997644;28;93736;-36
2023/06/22 08:25:02;;;;;;;11.43;9.95;;;24.10;99.90;;;;;;4996801;28;91902;-36
2023/06/22 08:27:30;;;;;;;13.52;11.77;;;24.10;99.90;;;;;;4996704;28;94453;-36
2023/06/22 08:29:58;;;;;;;;;;;24.10;99.90;;;;;;4998271;28;94625;-35
2023/06/22 08:32:26;;;;;;;14.32;12.65;;;24.30;99.90;;;;;;4997216;28;93667;-34
2023/06/22 08:34:52;;;;;;;12.10;10.60;;;24.40;99.90;;;;;;4995891;28;93134;-35
2023/06/22 08:37:18;;;;;;;12.05;10.85;;;24.50;99.90;;;;;;4995058;28;95350;-35
2023/06/22 08:39:44;;;;;;;12.60;11.27;;;24.50;99.90;;;;;;4995473;28;94656;-35
2023/06/22 08:42:10;;;;;;;13.40;11.98;;;24.70;99.90;;;;;;4994870;28;94340;-39
2023/06/22 08:44:35;;;;;;;11.40;9.10;;;24.80;99.90;;;;;;4995368;28;93039;-34
2023/06/22 08:47:02;;;;;;;14.27;9.40;;;24.80;99.90;;;;;;4995194;28;95324;-35
2023/06/22 08:49:27;;;;;;;12.05;9.88;;;24.90;99.90;;;;;;4996543;28;94588;-34
2023/06/22 08:51:55;;;;;;;10.05;9.00;;;24.90;99.90;;;;;;4996088;28;94445;-33
2023/06/22 08:54:21;;;;;;;11.13;10.02;;;25.10;99.90;;;;;;4995692;28;94553;-33
2023/06/22 08:56:47;;;;;;;12.88;11.20;;;25.10;99.90;;;;;;4995182;28;96216;-36
2023/06/22 08:59:12;;;;;;;13.48;9.57;;;25.10;99.90;;;;;;4994643;28;95237;-33
2023/06/22 09:01:38;;;;;;;14.23;10.55;;;25.20;99.90;;;;;;4996011;28;94531;-39
2023/06/22 09:04:05;;;;;;;14.88;11.50;;;25.10;99.90;;;;;;4994568;28;94040;-36
2023/06/22 09:06:32;;;;;;;11.15;9.98;;;25.10;99.90;;;;;;4994117;28;94717;-32
2023/06/22 09:08:59;;;;;;;12.77;11.45;;;25.20;99.90;;;;;;4995638;28;93844;-35
2023/06/22 09:11:25;;;;;;;12.55;11.25;;;25.40;99.90;;;;;;4995403;28;94498;-33
2023/06/22 09:13:52;;;;;;;12.95;11.65;;;25.30;99.90;;;;;;4995594;28;92387;-36
2023/06/22 09:16:18;;;;;;;10.50;9.50;;;25.30;99.90;;;;;;4994350;28;94921;-37
2023/06/22 09:18:47;;;;;;;15.70;11.38;;;25.40;99.90;;;;;;4996277;28;94450;-34
2023/06/22 09:21:13;;;;;;;12.10;9.48;;;25.40;99.90;;;;;;4994934;28;94464;-36
2023/06/22 09:23:39;;;;;;;10.35;8.88;;;25.40;99.90;;;;;;4995147;28;93093;-33
2023/06/22 09:26:05;;;;;;;12.18;10.98;;;25.60;99.90;;;;;;4995249;28;94462;-34
2023/06/22 09:28:30;;;;;;;12.13;11.02;;;25.70;99.90;;;;;;4994747;28;94610;-33
2023/06/22 09:30:58;;;;;;;11.50;10.40;;;25.60;99.90;;;;;;4995124;28;94451;-39
2023/06/22 09:33:25;;;;;;;10.95;9.98;;;25.60;99.90;;;;;;4995036;28;92699;-33
2023/06/22 09:35:50;;;;;;;12.00;10.97;;;25.70;99.90;;;;;;4994190;28;96050;-34
2023/06/22 09:38:16;;;;;;;20.10;10.65;;;25.70;99.90;;;;;;4995228;28;94127;-33
2023/06/22 09:40:42;;;;;;;12.68;10.27;;;25.80;99.90;;;;;;4995160;28;93057;-35
2023/06/22 09:43:08;;;;;;;12.02;10.82;;;25.60;99.90;;;;;;4994544;28;94540;-34
2023/06/22 09:45:34;;;;;;;9.52;8.68;;;25.70;99.90;;;;;;4994416;28;95485;-36
2023/06/22 09:47:59;;;;;;;11.32;10.25;;;25.80;99.90;;;;;;4994315;28;94960;-38
2023/06/22 09:50:25;;;;;;;11.73;10.55;;;25.70;99.90;;;;;;4994260;28;92784;-36
2023/06/22 09:52:54;;;;;;;13.00;10.38;;;25.60;99.90;;;;;;4994769;28;92667;-34
2023/06/22 09:55:21;;;;;;;11.32;10.25;;;25.60;99.90;;;;;;4994644;28;94307;-34
2023/06/22 09:57:46;;;;;;;13.48;12.10;;;25.80;99.90;;;;;;4994097;28;95052;-35
2023/06/22 10:00:13;;;;;;;11.25;10.13;;;25.80;99.90;;;;;;4976477;28;93168;-36
2023/06/22 10:02:40;;;;;;;12.32;10.48;;;25.70;99.90;;;;;;4994064;28;92148;-34
2023/06/22 10:05:07;;;;;;;12.57;11.23;;;25.70;99.90;;;;;;4993171;28;95346;-37
2023/06/22 10:07:33;;;;;;;14.07;11.27;;;25.80;99.90;;;;;;4994710;28;94757;-33
2023/06/22 10:09:59;;;;;;;10.95;9.85;;;25.90;99.90;;;;;;4994222;28;93375;-34
2023/06/22 10:12:27;;;;;;;12.32;11.23;;;25.90;99.90;;;;;;4994013;28;94804;-39
2023/06/22 10:14:53;;;;;;;13.73;12.32;;;25.90;99.90;;;;;;4994428;28;95150;-37
2023/06/22 10:17:19;;;;;;;10.82;9.73;;;25.80;99.90;;;;;;4992320;28;94914;-35
2023/06/22 10:19:44;;;;;;;11.43;10.32;;;25.80;99.90;;;;;;4994473;28;93961;-37
2023/06/22 10:22:10;;;;;;;9.88;9.07;;;26.10;99.90;;;;;;4997324;28;93265;-38
2023/06/22 10:24:36;;;;;;;12.23;11.05;;;26.10;99.90;;;;;;4994201;28;94794;-34
2023/06/22 10:27:01;;;;;;;10.95;9.85;;;26.20;99.90;;;;;;4994045;28;94307;-36
2023/06/22 10:29:27;;;;;;;11.93;10.73;;;26.30;99.90;;;;;;4994242;28;93889;-36
2023/06/22 10:31:52;;;;;;;12.02;11.02;;;26.20;99.90;;;;;;4993794;28;93305;-32
2023/06/22 10:34:18;;;;;;;12.00;10.80;;;26.30;99.90;;;;;;4992236;28;97204;-34
2023/06/22 10:36:47;;;;;;;10.98;9.20;;;26.30;99.90;;;;;;4993841;28;95731;-34
2023/06/22 10:39:12;;;;;;;12.80;11.50;;;26.20;99.90;;;;;;4994414;28;93025;-33
2023/06/22 10:41:38;;;;;;;11.98;10.52;;;26.10;99.90;;;;;;4993681;28;93403;-34
2023/06/22 10:44:04;;;;;;;12.15;10.95;;;25.90;99.90;;;;;;4993277;28;95237;-34
2023/06/22 10:46:29;;;;;;;13.15;11.52;;;26.00;99.90;;;;;;4993316;28;94980;-35
2023/06/22 10:48:56;;;;;;;14.60;11.77;;;26.20;99.90;;;;;;4993899;28;92353;-35
2023/06/22 10:51:22;;;;;;;12.63;10.88;;;26.30;99.90;;;;;;4993554;28;93871;-39
2023/06/22 10:53:48;;;;;;;12.82;11.00;;;25.90;99.90;;;;;;4993762;28;94879;-32
2023/06/22 10:56:14;;;;;;;14.23;12.73;;;25.90;99.90;;;;;;4993172;28;94381;-35
2023/06/22 10:58:39;;;;;;;13.82;10.93;;;26.00;99.90;;;;;;4994209;28;95367;-37
2023/06/22 11:01:05;;;;;;;14.25;11.13;;;25.90;99.90;;;;;;4993377;28;93161;-37
2023/06/22 11:03:30;;;;;;;11.93;10.73;;;26.00;99.90;;;;;;4993330;28;95635;-37
2023/06/22 11:05:56;;;;;;;14.98;11.35;;;26.20;99.90;;;;;;4993035;28;94628;-35
2023/06/22 11:08:22;;;;;;;12.40;11.35;;;26.30;99.90;;;;;;4992435;28;93056;-38
2023/06/22 11:10:47;;;;;;;13.35;11.88;;;26.20;99.90;;;;;;4993752;28;93182;-34
2023/06/22 11:13:13;;;;;;;12.52;11.20;;;26.20;99.90;;;;;;4992859;28;94744;-34
2023/06/22 11:15:39;;;;;;;12.80;11.50;;;26.30;99.90;;;;;;4993517;28;94411;-36
2023/06/22 11:18:05;;;;;;;14.32;12.85;;;26.30;99.90;;;;;;4993435;28;93429;-35
2023/06/22 11:20:33;;;;;;;12.07;10.98;;;26.20;99.90;;;;;;4992973;28;93308;-37
2023/06/22 11:22:59;;;;;;;14.55;12.15;;;26.20;99.90;;;;;;4992773;28;96737;-34
2023/06/22 11:25:25;;;;;;;12.88;10.02;;;26.20;99.90;;;;;;4993252;28;95140;-33
2023/06/22 11:27:53;;;;;;;12.32;11.07;;;26.20;99.90;;;;;;4993256;28;94336;-37
2023/06/22 11:30:19;;;;;;;14.68;12.25;;;26.20;99.90;;;;;;4996361;28;92758;-36
2023/06/22 11:32:45;;;;;;;11.52;10.52;;;26.10;99.90;;;;;;4995896;28;95199;-36
2023/06/22 11:35:11;;;;;;;11.10;9.88;;;26.00;99.90;;;;;;4996540;28;94607;-35
2023/06/22 11:37:36;;;;;;;10.50;9.55;;;25.90;99.90;;;;;;4998220;28;93073;-33
2023/06/22 11:40:05;;;;;;;11.95;10.88;;;25.90;99.90;;;;;;4997394;28;94049;-36
2023/06/22 11:42:31;;;;;;;12.73;11.30;;;25.90;99.90;;;;;;4996026;28;95111;-35
2023/06/22 11:44:56;;;;;;;12.30;11.00;;;25.90;99.90;;;;;;4996217;28;94482;-40
2023/06/22 11:47:22;;;;;;;11.52;10.25;;;25.90;99.90;;;;;;4995942;28;94358;-35
2023/06/22 11:49:47;;;;;;;12.82;11.20;;;25.90;99.90;;;;;;4996444;28;93980;-39
2023/06/22 11:52:13;;;;;;;13.40;12.07;;;25.90;99.90;;;;;;4996397;28;94606;-37
2023/06/22 11:54:39;;;;;;;11.73;10.70;;;25.90;99.90;;;;;;4995548;28;94070;-36
2023/06/22 11:57:04;;;;;;;12.18;10.82;;;25.90;99.90;;;;;;4997422;28;94788;-32
2023/06/22 11:59:30;;;;;;;12.38;11.15;;;25.90;99.90;;;;;;4995714;28;93550;-36
2023/06/22 12:01:58;;;;;;;11.27;10.27;;;25.90;99.90;;;;;;4996587;28;94369;-38
2023/06/22 12:04:23;;;;;;;;;;;25.90;99.90;;;;;;4996997;28;93425;-34
2023/06/22 12:06:49;;;;;;;13.02;10.50;;;25.90;99.90;;;;;;4998478;28;93417;-36
2023/06/22 12:09:14;;;;;;;13.65;11.23;;;25.90;99.90;;;;;;4995642;28;94124;-34
2023/06/22 12:11:40;;;;;;;11.38;10.40;;;26.00;99.90;;;;;;4995358;28;95570;-32
2023/06/22 12:14:06;;;;;;;10.77;9.90;;;26.00;99.90;;;;;;4996604;28;95423;-33
2023/06/22 12:16:31;;;;;;;10.98;9.60;;;26.00;99.90;;;;;;4997113;28;93154;-34
2023/06/22 12:18:57;;;;;;;9.25;7.63;;;26.00;99.90;;;;;;4996561;28;93999;-38
2023/06/22 12:21:23;;;;;;;9.50;8.70;;;26.20;99.90;;;;;;4996595;28;94451;-35
2023/06/22 12:23:48;;;;;;;10.00;9.00;;;26.20;99.90;;;;;;4995742;28;94515;-33
2023/06/22 12:26:14;;;;;;;10.32;9.30;;;26.20;99.90;;;;;;4997150;28;92895;-37
2023/06/22 12:28:40;;;;;;;8.57;7.88;;;26.30;99.90;;;;;;4996670;28;92837;-36
2023/06/22 12:31:05;;;;;;;9.30;8.50;;;26.20;99.90;;;;;;4996489;28;93693;-37